Time;durP1;ratioP1;P1;durP2;ratioP2;P2;SDS_P1;SDS_P2;PMS_P1;PMS_P2;Temp;Humidity;BMP_temperature;BMP_pressure;BME280_temperature;BME280_humidity;BME280_pressure;Samples;Min_cycle;Max_cycle;Signal;HPM_P1;HPM_P2
2021/03/03 00:00:36;;;;;;;40.25;18.33;;;4.30;99.90;;;;;;4938250;29;20062;-89
2021/03/03 00:03:03;;;;;;;44.20;19.67;;;4.30;99.90;;;;;;4921584;29;20801;-88
2021/03/03 00:05:30;;;;;;;35.55;17.98;;;4.30;99.90;;;;;;4928109;29;20076;-87
2021/03/03 00:07:56;;;;;;;47.17;19.27;;;4.30;99.90;;;;;;4948682;29;20048;-88
2021/03/03 00:10:23;;;;;;;40.95;18.63;;;4.30;99.90;;;;;;4956046;29;20051;-87
2021/03/03 00:12:52;;;;;;;42.85;19.52;;;4.30;99.90;;;;;;4959576;29;20059;-88
2021/03/03 00:15:21;;;;;;;45.85;19.95;;;4.20;99.90;;;;;;4948462;28;20099;-88
2021/03/03 00:17:48;;;;;;;37.17;19.80;;;4.30;99.90;;;;;;4964909;28;20086;-87
2021/03/03 00:20:15;;;;;;;40.70;19.50;;;4.20;99.90;;;;;;4970200;29;20103;-88
2021/03/03 00:22:47;;;;;;;42.20;19.42;;;4.10;99.90;;;;;;4948124;29;20115;-88
2021/03/03 00:25:14;;;;;;;39.90;18.83;;;4.00;99.90;;;;;;4950869;29;20059;-88
2021/03/03 00:27:40;;;;;;;43.67;20.05;;;4.00;99.90;;;;;;4957696;29;20118;-87
2021/03/03 00:30:15;;;;;;;45.22;19.48;;;3.90;99.90;;;;;;4938409;29;20127;-88
2021/03/03 00:32:42;;;;;;;42.28;19.63;;;4.00;99.90;;;;;;4931263;29;20147;-89
2021/03/03 00:35:10;;;;;;;42.60;19.77;;;4.00;99.90;;;;;;4943995;29;20078;-88
2021/03/03 00:37:37;;;;;;;38.30;19.80;;;4.00;99.90;;;;;;4953749;29;20043;-89
2021/03/03 00:40:07;;;;;;;42.88;19.70;;;4.00;99.90;;;;;;4951438;29;20430;-86
2021/03/03 00:42:37;;;;;;;41.25;20.27;;;4.00;99.90;;;;;;4944500;29;20065;-88
2021/03/03 00:45:06;;;;;;;35.85;19.17;;;4.10;99.90;;;;;;4924866;29;20055;-87
2021/03/03 00:47:41;;;;;;;40.35;20.20;;;4.20;99.90;;;;;;4925417;29;20142;-87
2021/03/03 00:50:10;;;;;;;38.30;19.88;;;4.30;99.90;;;;;;4937499;29;20066;-86
2021/03/03 00:52:37;;;;;;;41.65;20.50;;;4.30;99.90;;;;;;4944324;29;20048;-87
2021/03/03 00:55:06;;;;;;;42.15;21.20;;;4.30;99.90;;;;;;4941791;29;20402;-87
2021/03/03 00:57:33;;;;;;;44.38;21.90;;;4.30;99.90;;;;;;4945455;29;20134;-88
2021/03/03 01:00:03;;;;;;;43.83;20.10;;;4.30;99.90;;;;;;4946531;29;20335;-88
2021/03/03 01:02:29;;;;;;;42.35;21.38;;;4.20;99.90;;;;;;4949709;29;20055;-88
2021/03/03 01:04:59;;;;;;;38.35;21.13;;;4.20;99.90;;;;;;4954720;29;20051;-87
2021/03/03 01:07:25;;;;;;;43.58;20.45;;;4.10;99.90;;;;;;4943107;29;20043;-88
2021/03/03 01:09:52;;;;;;;37.80;20.35;;;4.10;99.90;;;;;;4939429;29;20123;-88
2021/03/03 01:12:20;;;;;;;39.40;20.48;;;4.00;99.90;;;;;;4947410;29;20150;-87
2021/03/03 01:14:49;;;;;;;41.75;20.10;;;3.90;99.90;;;;;;4934287;29;20066;-88
2021/03/03 01:17:16;;;;;;;41.22;21.35;;;3.80;99.90;;;;;;4938570;29;20134;-87
2021/03/03 01:19:43;;;;;;;39.85;20.55;;;3.70;99.90;;;;;;4945890;29;20499;-87
2021/03/03 01:22:11;;;;;;;42.88;21.63;;;3.60;99.90;;;;;;4939644;28;20043;-88
2021/03/03 01:24:42;;;;;;;40.65;20.58;;;3.60;99.90;;;;;;4911689;29;20094;-87
2021/03/03 01:27:11;;;;;;;39.63;19.50;;;3.50;99.90;;;;;;4920262;29;20130;-87
2021/03/03 01:29:40;;;;;;;42.25;20.83;;;3.60;99.90;;;;;;4939174;29;20143;-87
2021/03/03 01:32:07;;;;;;;45.40;20.90;;;3.60;99.90;;;;;;4951778;29;20442;-86
2021/03/03 01:34:33;;;;;;;38.13;19.80;;;3.60;99.90;;;;;;4946822;29;20121;-87
2021/03/03 01:37:04;;;;;;;47.35;22.05;;;3.70;99.90;;;;;;4938610;29;20432;-87
2021/03/03 01:39:31;;;;;;;43.90;21.00;;;3.90;99.90;;;;;;4954425;29;20122;-87
2021/03/03 01:42:00;;;;;;;45.00;21.13;;;4.00;99.90;;;;;;4943875;29;20525;-87
2021/03/03 01:44:28;;;;;;;40.17;20.67;;;4.10;99.90;;;;;;4923492;29;20048;-88
2021/03/03 01:46:56;;;;;;;57.38;21.50;;;4.10;99.90;;;;;;4941047;29;20455;-88
2021/03/03 01:49:22;;;;;;;42.92;19.75;;;4.20;99.90;;;;;;4931907;29;20077;-88
2021/03/03 01:51:48;;;;;;;40.53;20.88;;;4.20;99.90;;;;;;4937547;29;20513;-87
2021/03/03 01:54:15;;;;;;;41.40;20.45;;;4.20;99.90;;;;;;4944274;29;20134;-88
2021/03/03 01:56:42;;;;;;;42.58;20.40;;;4.30;99.90;;;;;;4935388;29;20138;-88
2021/03/03 01:59:08;;;;;;;41.30;20.42;;;4.30;99.90;;;;;;4936433;29;20138;-88
2021/03/03 02:01:35;;;;;;;38.22;20.20;;;4.30;99.90;;;;;;4951058;29;20126;-88
2021/03/03 02:04:05;;;;;;;40.78;20.48;;;4.30;99.90;;;;;;4908085;29;20052;-87
2021/03/03 02:06:38;;;;;;;37.33;19.65;;;4.30;99.90;;;;;;4929882;29;20075;-87
2021/03/03 02:09:17;;;;;;;40.70;19.42;;;4.30;99.90;;;;;;4953118;29;20094;-86
2021/03/03 02:12:02;;;;;;;40.22;19.35;;;4.30;99.90;;;;;;4953677;29;20441;-88
2021/03/03 02:14:30;;;;;;;38.83;20.17;;;4.40;99.90;;;;;;4952232;29;20072;-87
2021/03/03 02:17:00;;;;;;;46.28;20.33;;;4.30;99.90;;;;;;4939046;29;20134;-87
2021/03/03 02:19:35;;;;;;;44.00;21.17;;;4.30;99.90;;;;;;4944900;29;20052;-88
2021/03/03 02:22:19;;;;;;;40.60;19.95;;;4.20;99.90;;;;;;4930302;29;20051;-87
2021/03/03 02:25:03;;;;;;;37.33;19.35;;;4.00;99.90;;;;;;4949759;29;20095;-87
2021/03/03 02:27:36;;;;;;;40.75;21.02;;;3.90;99.90;;;;;;4941288;29;20063;-86
2021/03/03 02:30:04;;;;;;;42.20;19.70;;;3.70;99.90;;;;;;4939968;29;20110;-87
2021/03/03 02:32:34;;;;;;;41.28;20.88;;;3.60;99.90;;;;;;4946987;29;20055;-87
2021/03/03 02:35:04;;;;;;;40.03;21.40;;;3.50;99.90;;;;;;4951964;28;20063;-87
2021/03/03 02:37:30;;;;;;;43.33;21.33;;;3.40;99.90;;;;;;4956113;29;20118;-86
2021/03/03 02:39:57;;;;;;;41.83;22.02;;;3.50;99.90;;;;;;4956491;29;20051;-87
2021/03/03 02:42:27;;;;;;;48.20;21.50;;;3.70;99.90;;;;;;4948223;29;20047;-87
2021/03/03 02:44:57;;;;;;;47.58;20.55;;;3.90;99.90;;;;;;4948205;29;20508;-87
2021/03/03 02:47:26;;;;;;;39.33;19.92;;;4.10;99.90;;;;;;4944280;29;20414;-86
2021/03/03 02:49:53;;;;;;;45.20;20.13;;;4.10;99.90;;;;;;4949347;29;20075;-87
2021/03/03 02:52:20;;;;;;;41.13;20.38;;;4.20;99.90;;;;;;4949204;29;20187;-88
2021/03/03 02:54:47;;;;;;;43.50;20.58;;;4.20;99.90;;;;;;4940202;29;20096;-87
2021/03/03 02:57:16;;;;;;;47.50;22.23;;;4.10;99.90;;;;;;4931917;29;20097;-88
2021/03/03 02:59:49;;;;;;;42.13;20.67;;;4.10;99.90;;;;;;4938635;29;20114;-89
2021/03/03 03:02:22;;;;;;;40.90;21.83;;;4.10;99.90;;;;;;4949568;29;20075;-88
2021/03/03 03:04:51;;;;;;;42.03;21.52;;;4.10;99.90;;;;;;4961731;29;20043;-88
2021/03/03 03:07:21;;;;;;;43.17;21.45;;;4.00;99.90;;;;;;4970650;28;20126;-89
2021/03/03 03:09:49;;;;;;;40.10;20.98;;;3.80;99.90;;;;;;4953158;28;20542;-89
2021/03/03 03:12:17;;;;;;;42.08;22.60;;;3.70;99.90;;;;;;4971216;28;20063;-88
2021/03/03 03:14:47;;;;;;;44.30;21.65;;;3.70;99.90;;;;;;4971976;28;20032;-87
2021/03/03 03:17:17;;;;;;;42.60;21.35;;;3.60;99.90;;;;;;4957965;29;20054;-88
2021/03/03 03:19:50;;;;;;;39.05;19.88;;;3.60;99.90;;;;;;4958543;29;20052;-88
2021/03/03 03:22:26;;;;;;;44.60;21.90;;;3.40;99.90;;;;;;4955377;29;20055;-87
2021/03/03 03:24:57;;;;;;;40.90;21.13;;;3.30;99.90;;;;;;4959609;29;20059;-88
2021/03/03 03:27:25;;;;;;;41.20;20.65;;;3.30;99.90;;;;;;4947321;29;20047;-88
2021/03/03 03:29:53;;;;;;;38.63;20.42;;;3.20;99.90;;;;;;4946219;29;20052;-87
2021/03/03 03:32:24;;;;;;;50.47;21.40;;;3.10;99.90;;;;;;4944873;29;20410;-88
2021/03/03 03:34:54;;;;;;;42.60;21.98;;;3.10;99.90;;;;;;4929049;29;20051;-86
2021/03/03 03:37:23;;;;;;;44.53;22.20;;;3.10;99.90;;;;;;4927966;29;20073;-89
2021/03/03 03:39:49;;;;;;;45.15;22.35;;;3.00;99.90;;;;;;4946467;29;20051;-88
2021/03/03 03:42:17;;;;;;;42.10;21.13;;;3.00;99.90;;;;;;4943829;29;20134;-87
2021/03/03 03:44:47;;;;;;;46.60;22.00;;;3.10;99.90;;;;;;4945721;29;20131;-88
2021/03/03 03:47:18;;;;;;;38.95;20.63;;;3.10;99.90;;;;;;4929972;29;20150;-87
2021/03/03 03:49:49;;;;;;;47.45;22.17;;;3.10;99.90;;;;;;4947840;29;20066;-88
2021/03/03 03:52:16;;;;;;;41.13;20.70;;;3.00;99.90;;;;;;4926188;29;20079;-88
2021/03/03 03:54:53;;;;;;;47.05;22.95;;;3.00;99.90;;;;;;4940700;29;20191;-88
2021/03/03 03:57:23;;;;;;;36.13;21.23;;;3.00;99.90;;;;;;4930879;29;20126;-88
2021/03/03 03:59:52;;;;;;;40.60;21.65;;;3.00;99.90;;;;;;4952261;28;20150;-88
2021/03/03 04:02:18;;;;;;;40.45;22.15;;;2.90;99.90;;;;;;4943099;29;20493;-88
2021/03/03 04:04:45;;;;;;;50.33;24.20;;;2.90;99.90;;;;;;4952502;29;20126;-88
2021/03/03 04:07:13;;;;;;;39.78;22.42;;;2.90;99.90;;;;;;4924689;29;20142;-87
2021/03/03 04:09:40;;;;;;;45.17;23.50;;;2.90;99.90;;;;;;4956171;29;20448;-89
2021/03/03 04:12:09;;;;;;;40.58;22.15;;;2.90;99.90;;;;;;4935091;29;20430;-89
2021/03/03 04:14:39;;;;;;;46.08;22.58;;;3.00;99.90;;;;;;4941883;29;20136;-88
2021/03/03 04:17:05;;;;;;;41.13;22.40;;;3.00;99.90;;;;;;4952132;29;20316;-88
2021/03/03 04:19:33;;;;;;;52.15;21.98;;;3.00;99.90;;;;;;4952362;29;20061;-88
2021/03/03 04:22:02;;;;;;;48.67;23.02;;;3.10;99.90;;;;;;4952248;29;20048;-87
2021/03/03 04:24:29;;;;;;;44.33;23.00;;;3.10;99.90;;;;;;4946223;29;20056;-88
2021/03/03 04:26:58;;;;;;;43.42;22.60;;;3.20;99.90;;;;;;4921566;29;20135;-87
2021/03/03 04:29:25;;;;;;;41.45;22.13;;;3.30;99.90;;;;;;4945660;29;20047;-87
2021/03/03 04:31:51;;;;;;;41.22;22.63;;;3.30;99.90;;;;;;4929665;29;20106;-87
2021/03/03 04:34:17;;;;;;;42.92;23.10;;;3.30;99.90;;;;;;4946424;29;20074;-87
2021/03/03 04:36:48;;;;;;;46.75;23.00;;;3.40;99.90;;;;;;4942381;29;20146;-88
2021/03/03 04:39:17;;;;;;;47.70;22.67;;;3.40;99.90;;;;;;4944572;29;20093;-87
2021/03/03 04:41:44;;;;;;;41.95;22.13;;;3.40;99.90;;;;;;4936400;29;20162;-89
2021/03/03 04:44:11;;;;;;;44.67;23.13;;;3.40;99.90;;;;;;4941377;29;20474;-87
2021/03/03 04:46:38;;;;;;;45.92;23.55;;;3.50;99.90;;;;;;4942196;29;20446;-88
2021/03/03 04:49:07;;;;;;;42.78;23.23;;;3.50;99.90;;;;;;4956414;29;20055;-87
2021/03/03 04:51:36;;;;;;;39.75;23.23;;;3.50;99.90;;;;;;4947073;29;20110;-87
2021/03/03 04:54:03;;;;;;;39.88;21.88;;;3.40;99.90;;;;;;4945127;29;20044;-88
2021/03/03 04:56:30;;;;;;;40.28;22.45;;;3.40;99.90;;;;;;4938296;29;20071;-88
2021/03/03 04:58:59;;;;;;;38.25;21.40;;;3.40;99.90;;;;;;4955494;29;20066;-86
2021/03/03 05:01:25;;;;;;;40.03;21.58;;;3.30;99.90;;;;;;4935685;29;20166;-87
2021/03/03 05:03:54;;;;;;;40.50;22.17;;;3.30;99.90;;;;;;4944939;29;20055;-89
2021/03/03 05:06:21;;;;;;;49.08;25.67;;;3.30;99.90;;;;;;4936492;29;20130;-88
2021/03/03 05:08:47;;;;;;;54.55;29.77;;;3.20;99.90;;;;;;4937513;29;20063;-88
2021/03/03 05:11:14;;;;;;;46.33;25.25;;;3.20;99.90;;;;;;4954137;29;20109;-88
2021/03/03 05:13:40;;;;;;;44.30;23.58;;;3.20;99.90;;;;;;4954128;28;20059;-88
2021/03/03 05:16:07;;;;;;;44.58;23.83;;;3.20;99.90;;;;;;4944760;29;20082;-89
2021/03/03 05:18:36;;;;;;;51.22;24.77;;;3.10;99.90;;;;;;4936761;29;20056;-89
2021/03/03 05:21:02;;;;;;;38.90;22.50;;;3.10;99.90;;;;;;4912110;29;20051;-87
2021/03/03 05:23:37;;;;;;;42.35;24.38;;;3.00;99.90;;;;;;4949410;29;20071;-87
2021/03/03 05:26:08;;;;;;;41.30;22.80;;;3.00;99.90;;;;;;4945570;29;20443;-87
2021/03/03 05:28:37;;;;;;;44.55;22.95;;;2.90;99.90;;;;;;4951126;29;20080;-87
2021/03/03 05:31:04;;;;;;;41.70;22.77;;;2.90;99.90;;;;;;4947830;29;20048;-87
2021/03/03 05:33:50;;;;;;;46.15;21.95;;;2.90;99.90;;;;;;4940412;29;20126;-89
2021/03/03 05:36:19;;;;;;;39.78;21.77;;;2.80;99.90;;;;;;4949432;29;20094;-88
2021/03/03 05:38:47;;;;;;;47.42;23.98;;;2.80;99.90;;;;;;4954588;29;20496;-88
2021/03/03 05:41:21;;;;;;;44.05;23.70;;;2.80;99.90;;;;;;4941028;29;20075;-88
2021/03/03 05:43:47;;;;;;;44.58;23.50;;;2.80;99.90;;;;;;4943973;29;20051;-88
2021/03/03 05:46:17;;;;;;;46.92;23.90;;;2.70;99.90;;;;;;4944740;29;20460;-89
2021/03/03 05:48:48;;;;;;;41.53;24.15;;;2.70;99.90;;;;;;4942713;29;20054;-87
2021/03/03 05:51:15;;;;;;;44.60;22.63;;;2.70;99.90;;;;;;4952489;29;20146;-87
2021/03/03 05:53:48;;;;;;;45.58;22.42;;;2.60;99.90;;;;;;4934497;29;20473;-88
2021/03/03 05:56:22;;;;;;;42.50;22.73;;;2.60;99.90;;;;;;4939813;29;20043;-88
2021/03/03 05:58:49;;;;;;;39.65;20.83;;;2.70;99.90;;;;;;4961381;29;20119;-88
2021/03/03 06:01:16;;;;;;;44.33;22.95;;;2.70;99.90;;;;;;4964397;29;20044;-87
2021/03/03 06:03:46;;;;;;;37.58;21.70;;;2.80;99.90;;;;;;4940998;29;20043;-91
2021/03/03 06:06:12;;;;;;;40.55;21.50;;;2.90;99.90;;;;;;4975442;28;20051;-88
2021/03/03 06:08:50;;;;;;;42.65;23.65;;;3.10;99.90;;;;;;4977111;28;20047;-88
2021/03/03 06:11:20;;;;;;;40.65;21.55;;;3.20;99.90;;;;;;4969373;29;20083;-89
2021/03/03 06:13:49;;;;;;;38.13;20.92;;;3.20;99.90;;;;;;4955984;29;20051;-87
2021/03/03 06:16:16;;;;;;;34.67;20.60;;;3.40;99.90;;;;;;4950154;29;20097;-89
2021/03/03 06:18:54;;;;;;;42.22;21.27;;;3.40;99.90;;;;;;4940555;29;20043;-89
2021/03/03 06:21:48;;;;;;;38.42;21.42;;;3.50;99.90;;;;;;4953181;29;20050;-88
2021/03/03 06:24:55;;;;;;;36.78;20.20;;;3.50;99.90;;;;;;4952242;29;20062;-88
2021/03/03 06:27:23;;;;;;;43.00;19.98;;;3.50;99.90;;;;;;4950996;29;20065;-89
2021/03/03 06:30:29;;;;;;;33.60;19.30;;;3.50;99.90;;;;;;4948143;29;20106;-88
2021/03/03 06:33:25;;;;;;;40.20;20.63;;;3.50;99.90;;;;;;4890652;29;20140;-87
2021/03/03 06:35:55;;;;;;;40.28;20.35;;;3.50;99.90;;;;;;4946141;29;20130;-89
2021/03/03 06:38:45;;;;;;;41.67;19.77;;;3.50;99.90;;;;;;4954949;29;20047;-85
2021/03/03 06:41:12;;;;;;;33.78;19.17;;;3.50;99.90;;;;;;4940201;29;20154;-87
2021/03/03 06:43:58;;;;;;;37.53;21.10;;;3.50;99.90;;;;;;4939820;29;20040;-87
2021/03/03 06:46:25;;;;;;;35.17;19.90;;;3.50;99.90;;;;;;4959907;28;20047;-87
2021/03/03 06:48:51;;;;;;;34.53;20.33;;;3.50;99.90;;;;;;4952644;29;20083;-84
2021/03/03 06:51:21;;;;;;;39.47;20.75;;;3.50;99.90;;;;;;4952389;29;20051;-84
2021/03/03 06:53:51;;;;;;;45.25;21.27;;;3.50;99.90;;;;;;4951793;28;20461;-84
2021/03/03 06:56:49;;;;;;;44.08;22.48;;;3.60;99.90;;;;;;4953634;29;20077;-85
2021/03/03 06:59:26;;;;;;;39.58;21.17;;;3.60;99.90;;;;;;4952415;29;20040;-90
2021/03/03 07:01:57;;;;;;;38.97;20.92;;;3.60;99.90;;;;;;4942446;29;20055;-91
2021/03/03 07:04:28;;;;;;;46.85;23.45;;;3.70;99.90;;;;;;4950598;29;20047;-85
2021/03/03 07:07:19;;;;;;;45.90;21.58;;;3.70;99.90;;;;;;4954452;29;20308;-87
2021/03/03 07:10:08;;;;;;;45.05;21.80;;;3.80;99.90;;;;;;4951777;29;20146;-84
2021/03/03 07:12:54;;;;;;;49.85;21.30;;;3.80;99.90;;;;;;4917770;29;20082;-87
2021/03/03 07:15:37;;;;;;;42.60;20.77;;;3.80;99.90;;;;;;4941571;29;20097;-87
2021/03/03 07:18:27;;;;;;;45.47;20.58;;;3.90;99.90;;;;;;4948751;29;20059;-86
2021/03/03 07:21:37;;;;;;;41.45;21.55;;;3.90;99.90;;;;;;4888209;29;20402;-87
2021/03/03 07:24:18;;;;;;;45.63;20.83;;;4.00;99.90;;;;;;4900353;29;20120;-87
2021/03/03 07:26:46;;;;;;;38.83;21.48;;;4.10;99.90;;;;;;4901828;29;20049;-86
2021/03/03 07:29:40;;;;;;;42.30;22.40;;;4.10;99.90;;;;;;4901582;29;20166;-86
2021/03/03 07:35:49;;;;;;;40.47;21.63;;;4.40;99.90;;;;;;4901665;29;20045;-86
2021/03/03 07:38:52;;;;;;;39.50;19.77;;;4.50;99.90;;;;;;4905431;29;20052;-87
2021/03/03 07:41:45;;;;;;;35.28;19.83;;;4.60;99.90;;;;;;4853214;29;20101;-86
2021/03/03 07:44:24;;;;;;;37.30;20.40;;;4.80;99.90;;;;;;4856549;29;20064;-86
2021/03/03 07:46:53;;;;;;;40.70;20.05;;;4.90;99.90;;;;;;4899599;29;20064;-86
2021/03/03 07:49:54;;;;;;;40.20;20.05;;;5.00;99.90;;;;;;4868979;29;20382;-86
2021/03/03 07:52:26;;;;;;;43.42;20.30;;;5.10;99.90;;;;;;4883916;29;20058;-85
2021/03/03 07:55:00;;;;;;;39.00;21.08;;;5.20;99.90;;;;;;4897082;29;20064;-87
2021/03/03 07:57:47;;;;;;;39.08;21.40;;;5.30;99.90;;;;;;4888997;29;20057;-88
2021/03/03 08:00:19;;;;;;;42.75;20.38;;;5.40;99.90;;;;;;4887245;29;20100;-86
2021/03/03 08:02:47;;;;;;;34.22;20.52;;;5.50;99.90;;;;;;4898032;29;20136;-84
2021/03/03 08:05:30;;;;;;;43.90;20.15;;;5.70;99.90;;;;;;4876284;29;20049;-87
2021/03/03 08:12:04;;;;;;;38.03;20.15;;;5.90;99.90;;;;;;4840032;29;20094;-90
2021/03/03 08:14:34;;;;;;;40.95;19.00;;;6.00;99.90;;;;;;4862548;29;20091;-90
2021/03/03 08:17:25;;;;;;;37.22;19.95;;;6.00;99.90;;;;;;4897167;29;20052;-88
2021/03/03 08:20:48;;;;;;;;;;;;;;;;;;;;;
2021/03/03 08:23:44;;;;;;;34.85;18.63;;;6.10;99.90;;;;;;4883538;29;20157;-90
2021/03/03 08:26:17;;;;;;;35.05;17.52;;;6.30;99.90;;;;;;4893519;29;20052;-90
2021/03/03 08:30:13;;;;;;;;;;;;;;;;;;;;;
2021/03/03 08:34:04;;;;;;;37.03;18.23;;;6.70;99.90;;;;;;4900211;29;20513;-89
2021/03/03 08:42:05;;;;;;;;;;;;;;;;;;;;;
2021/03/03 08:45:06;;;;;;;34.03;16.85;;;7.50;99.90;;;;;;4851394;29;20105;-90
2021/03/03 08:48:18;;;;;;;33.42;17.70;;;7.70;99.90;;;;;;4855381;29;20110;-89
2021/03/03 08:52:15;;;;;;;30.95;17.58;;;7.80;99.90;;;;;;4793533;30;20504;-91
2021/03/03 08:55:34;;;;;;;;;;;;;;;;;;;;;
2021/03/03 09:02:16;;;;;;;;;;;;;;;;;;;;;
2021/03/03 09:05:15;;;;;;;35.05;18.23;;;7.80;99.90;;;;;;4872559;29;20121;-93
2021/03/03 09:08:01;;;;;;;;;;;;;;;;;;;;;
2021/03/03 09:18:20;;;;;;;24.10;14.65;;;8.20;99.90;;;;;;4824369;29;20140;-92
2021/03/03 09:21:16;;;;;;;;;;;;;;;;;;;;;
2021/03/03 09:23:58;;;;;;;;;;;;;;;;;;;;;
2021/03/03 09:26:51;;;;;;;27.35;14.65;;;8.90;97.60;;;;;;4906684;29;20501;-90
2021/03/03 09:29:43;;;;;;;25.60;13.80;;;9.20;92.50;;;;;;4872700;29;20059;-89
2021/03/03 09:32:47;;;;;;;;;;;;;;;;;;;;;
2021/03/03 09:35:30;;;;;;;28.42;15.43;;;9.70;96.30;;;;;;4845762;29;20173;-91
2021/03/03 09:39:00;;;;;;;;;;;;;;;;;;;;;
2021/03/03 09:41:58;;;;;;;;;;;10.30;90.30;;;;;;4741024;30;20069;-89
2021/03/03 09:44:46;;;;;;;29.17;16.90;;;10.50;93.50;;;;;;4751253;29;19933;-90
2021/03/03 09:48:10;;;;;;;29.23;16.23;;;10.40;93.70;;;;;;4794591;29;20084;-89
2021/03/03 10:03:07;;;;;;;;;;;;;;;;;;;;;
2021/03/03 10:10:01;;;;;;;29.23;16.65;;;11.70;87.50;;;;;;4753523;30;20069;-92
2021/03/03 11:35:08;;;;;;;;;;;14.80;61.60;;;;;;4360286;23;20113;-90
2021/03/03 11:41:03;;;;;;;23.92;12.10;;;15.20;58.00;;;;;;4931350;29;20143;-91
2021/03/03 11:43:48;;;;;;;22.20;11.55;;;15.30;56.70;;;;;;4926775;29;20040;-91
2021/03/03 11:46:21;;;;;;;20.80;11.50;;;15.30;57.40;;;;;;4926935;29;20071;-90
2021/03/03 11:48:57;;;;;;;22.15;12.20;;;15.00;57.00;;;;;;4941499;29;20142;-91
2021/03/03 11:51:43;;;;;;;21.15;11.38;;;15.10;58.80;;;;;;4941907;29;20082;-89
2021/03/03 11:54:11;;;;;;;26.85;12.55;;;15.30;55.30;;;;;;4914054;29;20457;-88
2021/03/03 11:56:46;;;;;;;28.02;14.82;;;15.20;55.80;;;;;;4939352;29;20055;-88
2021/03/03 11:59:14;;;;;;;25.42;12.00;;;15.10;56.80;;;;;;4939863;29;20052;-86
2021/03/03 12:01:43;;;;;;;27.25;12.60;;;15.10;56.30;;;;;;4939398;29;20056;-88
2021/03/03 12:04:10;;;;;;;22.80;11.95;;;15.30;57.00;;;;;;4940314;29;20134;-89
2021/03/03 12:06:42;;;;;;;23.55;12.98;;;15.40;57.70;;;;;;4923250;29;20048;-89
2021/03/03 12:09:30;;;;;;;30.67;13.40;;;15.50;57.40;;;;;;4935151;29;20052;-88
2021/03/03 12:12:00;;;;;;;26.08;12.60;;;15.70;57.50;;;;;;4939671;29;20385;-87
2021/03/03 12:14:48;;;;;;;24.77;12.35;;;15.70;56.10;;;;;;4924043;29;20492;-88
2021/03/03 12:17:15;;;;;;;21.30;11.43;;;15.60;54.60;;;;;;4935747;29;20422;-88
2021/03/03 12:19:45;;;;;;;20.92;11.40;;;15.70;55.20;;;;;;4937475;29;20363;-87
2021/03/03 12:22:15;;;;;;;23.20;12.65;;;15.80;54.80;;;;;;4939111;29;20047;-87
2021/03/03 12:24:47;;;;;;;20.27;12.25;;;15.80;53.20;;;;;;4937961;29;20056;-90
2021/03/03 12:27:13;;;;;;;25.67;13.27;;;15.70;54.20;;;;;;4940945;29;20043;-90
2021/03/03 12:29:50;;;;;;;23.90;12.38;;;15.50;56.00;;;;;;4925192;29;20373;-90
2021/03/03 12:32:17;;;;;;;19.65;12.00;;;15.50;56.80;;;;;;4923324;29;20418;-90
2021/03/03 12:34:46;;;;;;;25.67;13.27;;;15.50;55.30;;;;;;4937310;29;20055;-89
2021/03/03 12:37:16;;;;;;;22.23;12.20;;;15.60;54.40;;;;;;4940588;29;20058;-89
2021/03/03 12:39:44;;;;;;;25.88;12.48;;;15.50;55.60;;;;;;4923616;29;20046;-90
2021/03/03 12:42:17;;;;;;;23.45;12.57;;;15.40;54.60;;;;;;4945739;29;20054;-89
2021/03/03 12:44:55;;;;;;;23.00;13.68;;;15.40;55.70;;;;;;4938333;29;20055;-89
2021/03/03 12:47:32;;;;;;;;;;;;;;;;;;;;;
2021/03/03 12:50:00;;;;;;;30.65;12.57;;;15.40;54.90;;;;;;4954786;29;20115;-90
2021/03/03 12:52:28;;;;;;;29.77;13.98;;;15.20;54.70;;;;;;4954838;29;20092;-91
2021/03/03 12:55:23;;;;;;;;;;;;;;;;;;;;;
2021/03/03 12:57:52;;;;;;;27.25;13.23;;;15.40;54.60;;;;;;4942276;29;20062;-89
2021/03/03 13:00:24;;;;;;;23.95;12.88;;;15.60;56.40;;;;;;4923632;29;20051;-88
2021/03/03 13:03:26;;;;;;;27.60;13.63;;;15.70;54.10;;;;;;4933246;29;20082;-87
2021/03/03 13:06:13;;;;;;;29.38;12.63;;;15.90;52.90;;;;;;4908972;29;20048;-88
2021/03/03 13:08:51;;;;;;;28.70;13.05;;;15.80;52.30;;;;;;4923145;29;20655;-87
2021/03/03 13:11:38;;;;;;;25.02;12.23;;;15.90;52.30;;;;;;4940654;29;20135;-90
2021/03/03 13:14:30;;;;;;;22.35;12.50;;;15.80;52.40;;;;;;4939637;29;20075;-88
2021/03/03 13:16:58;;;;;;;26.13;13.03;;;15.80;52.90;;;;;;4940900;29;20434;-89
2021/03/03 13:19:42;;;;;;;26.38;12.57;;;15.70;52.80;;;;;;4928697;29;20052;-89
2021/03/03 13:22:28;;;;;;;24.75;12.35;;;15.80;53.30;;;;;;4931397;29;20047;-89
2021/03/03 13:25:25;;;;;;;21.33;12.43;;;15.80;53.60;;;;;;4868850;29;20126;-88
2021/03/03 13:27:55;;;;;;;23.55;11.27;;;15.80;53.50;;;;;;4848349;29;20061;-88
2021/03/03 13:30:24;;;;;;;23.73;12.43;;;15.80;52.90;;;;;;4849952;29;20183;-89
2021/03/03 13:33:16;;;;;;;;;;;;;;;;;;;;;
2021/03/03 13:35:52;;;;;;;30.52;12.88;;;15.60;51.70;;;;;;4863143;29;20156;-88
2021/03/03 13:38:22;;;;;;;24.85;12.35;;;15.40;53.20;;;;;;4864137;29;20072;-91
2021/03/03 13:41:14;;;;;;;;;;;;;;;;;;;;;
2021/03/03 13:44:11;;;;;;;;;;;15.40;53.70;;;;;;4934617;29;20074;-86
2021/03/03 13:46:43;;;;;;;23.35;11.52;;;15.40;54.00;;;;;;4931652;29;20308;-86
2021/03/03 13:50:00;;;;;;;22.15;12.10;;;15.40;54.30;;;;;;4923629;29;20697;-86
2021/03/03 13:52:29;;;;;;;29.25;12.80;;;15.30;53.30;;;;;;4920163;29;20051;-86
2021/03/03 13:55:19;;;;;;;22.23;12.10;;;15.00;52.60;;;;;;4873846;29;20057;-83
2021/03/03 13:57:47;;;;;;;23.48;12.65;;;14.90;52.50;;;;;;4862011;29;20128;-84
2021/03/03 14:00:41;;;;;;;26.30;11.93;;;14.80;53.30;;;;;;4861500;29;20053;-86
2021/03/03 14:03:15;;;;;;;24.55;12.15;;;14.70;53.70;;;;;;4861578;29;20337;-87
2021/03/03 14:06:15;;;;;;;27.40;12.20;;;14.80;53.80;;;;;;4841501;29;20060;-87
2021/03/03 14:08:56;;;;;;;23.60;12.73;;;14.80;54.30;;;;;;4862666;29;20120;-87
2021/03/03 14:11:28;;;;;;;24.52;12.50;;;14.90;54.40;;;;;;4862662;29;20057;-86
2021/03/03 14:14:13;;;;;;;22.13;11.70;;;14.80;54.00;;;;;;4921563;29;20043;-87
2021/03/03 14:16:59;;;;;;;23.25;12.40;;;14.80;53.60;;;;;;4940138;29;20048;-85
2021/03/03 14:19:31;;;;;;;24.20;12.98;;;14.80;53.50;;;;;;4938429;29;20054;-89
2021/03/03 14:21:59;;;;;;;22.17;12.60;;;14.80;54.00;;;;;;4914574;29;20080;-87
2021/03/03 14:24:27;;;;;;;24.60;12.80;;;14.60;54.20;;;;;;4936787;29;20123;-87
2021/03/03 14:27:51;;;;;;;23.67;12.27;;;14.70;55.30;;;;;;4930021;29;20111;-84
2021/03/03 14:30:23;;;;;;;;;;;14.60;53.60;;;;;;4914658;29;20124;-88
2021/03/03 14:32:59;;;;;;;27.95;13.30;;;14.50;54.40;;;;;;4944358;29;19926;-85
2021/03/03 14:35:43;;;;;;;;;;;;;;;;;;;;;
2021/03/03 14:39:44;;;;;;;;;;;;;;;;;;;;;
2021/03/03 14:43:14;;;;;;;27.27;12.35;;;14.50;55.50;;;;;;4913653;29;20068;-87
2021/03/03 14:46:06;;;;;;;28.92;13.88;;;14.50;54.70;;;;;;4918237;29;20060;-88
2021/03/03 14:49:46;;;;;;;;;;;;;;;;;;;;;
2021/03/03 14:56:18;;;;;;;23.25;12.43;;;14.40;55.80;;;;;;4846514;29;20089;-87
2021/03/03 14:59:37;;;;;;;;;;;;;;;;;;;;;
2021/03/03 15:02:23;;;;;;;23.88;12.65;;;14.10;57.70;;;;;;4923247;29;20497;-87
2021/03/03 15:05:23;;;;;;;23.70;12.65;;;14.00;57.70;;;;;;4869941;29;20143;-87
2021/03/03 15:09:23;;;;;;;;;;;;;;;;;;;;;
2021/03/03 15:12:35;;;;;;;;;;;;;;;;;;;;;
2021/03/03 15:19:24;;;;;;;;;;;;;;;;;;;;;
2021/03/03 15:22:55;;;;;;;;;;;;;;;;;;;;;
2021/03/03 15:25:50;;;;;;;31.77;12.55;;;13.40;58.50;;;;;;4938432;29;20047;-89
2021/03/03 15:28:17;;;;;;;24.90;13.07;;;13.30;58.90;;;;;;4946150;29;20075;-90
2021/03/03 15:30:46;;;;;;;29.13;13.88;;;13.20;60.00;;;;;;4949502;29;20048;-91
2021/03/03 15:36:35;;;;;;;25.17;13.77;;;13.00;61.40;;;;;;4922644;29;20108;-89
2021/03/03 15:39:50;;;;;;;;;;;;;;;;;;;;;
2021/03/03 15:42:46;;;;;;;24.10;12.68;;;12.90;60.80;;;;;;4937814;29;20063;-91
2021/03/03 15:45:52;;;;;;;;;;;;;;;;;;;;;
2021/03/03 15:49:02;;;;;;;28.58;12.55;;;12.80;61.80;;;;;;4936232;29;20044;-91
2021/03/03 15:51:48;;;;;;;;;;;;;;;;;;;;;
2021/03/03 15:59:16;;;;;;;27.65;13.10;;;12.40;63.40;;;;;;4867539;29;20080;-92
2021/03/03 16:13:05;;;;;;;35.60;15.73;;;11.90;65.00;;;;;;4663082;30;20043;-91
2021/03/03 16:15:59;;;;;;;32.55;14.95;;;11.80;65.70;;;;;;4674588;30;20088;-92
2021/03/03 16:25:44;;;;;;;29.42;14.32;;;11.50;67.00;;;;;;5052922;23;20103;-91
2021/03/03 16:36:26;;;;;;;;;;;;;;;;;;;;;
2021/03/03 16:39:05;;;;;;;33.22;14.77;;;11.00;66.90;;;;;;4849157;29;20150;-92
2021/03/03 16:42:23;;;;;;;;;;;;;;;;;;;;;
2021/03/03 16:46:04;;;;;;;;;;;;;;;;;;;;;
2021/03/03 16:49:08;;;;;;;;;;;;;;;;;;;;;
2021/03/03 16:55:59;;;;;;;31.02;16.30;;;10.30;70.70;;;;;;4721668;30;20053;-91
2021/03/03 16:59:02;;;;;;;32.42;16.05;;;10.20;74.10;;;;;;4722259;30;20056;-90
2021/03/03 17:40:58;;;;;;;60.83;24.92;;;9.10;99.90;;;;;;4958616;29;20066;-91
2021/03/03 17:43:50;;;;;;;50.58;23.95;;;9.00;99.90;;;;;;4943142;29;20540;-90